sensor_id;sensor_type;location;lat;lon;timestamp;pressure;altitude;pressure_sealevel;temperature;humidity
7180;BME280;3631;42.152;24.756;2023-04-28T00:03:07;148155.84;;;12.22;49.66
7180;BME280;3631;42.152;24.756;2023-04-28T00:05:41;148150.78;;;12.20;48.84
7180;BME280;3631;42.152;24.756;2023-04-28T00:08:26;148145.81;;;12.18;47.95
7180;BME280;3631;42.152;24.756;2023-04-28T00:11:16;148160.88;;;12.24;47.62
7180;BME280;3631;42.152;24.756;2023-04-28T00:14:16;148149.53;;;12.20;47.30
7180;BME280;3631;42.152;24.756;2023-04-28T00:17:24;148155.84;;;12.22;47.21
7180;BME280;3631;42.152;24.756;2023-04-28T00:20:21;148164.66;;;12.26;46.71
7180;BME280;3631;42.152;24.756;2023-04-28T00:23:13;148173.50;;;12.29;46.62
7180;BME280;3631;42.152;24.756;2023-04-28T00:26:22;148148.28;;;12.19;46.90
7180;BME280;3631;42.152;24.756;2023-04-28T00:29:12;148159.63;;;12.24;47.34
7180;BME280;3631;42.152;24.756;2023-04-28T00:32:26;148158.38;;;12.23;47.61
7180;BME280;3631;42.152;24.756;2023-04-28T00:35:24;148138.22;;;12.15;47.63
7180;BME280;3631;42.152;24.756;2023-04-28T00:41:57;148138.22;;;12.15;48.17
7180;BME280;3631;42.152;24.756;2023-04-28T00:44:52;148135.72;;;12.14;48.34
7180;BME280;3631;42.152;24.756;2023-04-28T00:54:28;148108.00;;;12.03;49.20
7180;BME280;3631;42.152;24.756;2023-04-28T01:00:53;148096.66;;;11.98;49.67
7180;BME280;3631;42.152;24.756;2023-04-28T01:03:42;148075.28;;;11.90;50.34
7180;BME280;3631;42.152;24.756;2023-04-28T01:06:44;148082.84;;;11.93;50.42
7180;BME280;3631;42.152;24.756;2023-04-28T01:16:25;148007.25;;;11.62;52.24
7180;BME280;3631;42.152;24.756;2023-04-28T01:19:34;147987.13;;;11.54;52.55
7180;BME280;3631;42.152;24.756;2023-04-28T01:22:29;147984.63;;;11.53;53.06
7180;BME280;3631;42.152;24.756;2023-04-28T01:25:51;147965.75;;;11.46;53.18
7180;BME280;3631;42.152;24.756;2023-04-28T01:28:54;147931.78;;;11.32;53.46
7180;BME280;3631;42.152;24.756;2023-04-28T01:31:55;147899.06;;;11.19;54.54
7180;BME280;3631;42.152;24.756;2023-04-28T01:34:58;147886.50;;;11.14;54.89
7180;BME280;3631;42.152;24.756;2023-04-28T01:38:04;147871.38;;;11.08;55.69
7180;BME280;3631;42.152;24.756;2023-04-28T01:41:00;147836.19;;;10.94;56.19
7180;BME280;3631;42.152;24.756;2023-04-28T01:43:46;147846.22;;;10.98;56.69
7180;BME280;3631;42.152;24.756;2023-04-28T01:47:08;147843.72;;;10.97;56.96
7180;BME280;3631;42.152;24.756;2023-04-28T01:50:13;147824.84;;;10.89;56.98
7180;BME280;3631;42.152;24.756;2023-04-28T01:53:21;147811.03;;;10.83;57.95
7180;BME280;3631;42.152;24.756;2023-04-28T01:56:31;147806.00;;;10.81;57.84
7180;BME280;3631;42.152;24.756;2023-04-28T01:59:29;147768.25;;;10.66;58.68
7180;BME280;3631;42.152;24.756;2023-04-28T02:02:33;147764.47;;;10.65;58.44
7180;BME280;3631;42.152;24.756;2023-04-28T02:05:35;147746.91;;;10.58;58.16
7180;BME280;3631;42.152;24.756;2023-04-28T02:08:31;147755.66;;;10.61;57.89
7180;BME280;3631;42.152;24.756;2023-04-28T02:11:34;147733.06;;;10.52;57.71
7180;BME280;3631;42.152;24.756;2023-04-28T02:14:49;147724.28;;;10.48;57.79
7180;BME280;3631;42.152;24.756;2023-04-28T02:17:57;147723.03;;;10.48;58.16
7180;BME280;3631;42.152;24.756;2023-04-28T02:20:51;147704.13;;;10.40;58.47
7180;BME280;3631;42.152;24.756;2023-04-28T02:23:57;147697.88;;;10.38;57.94
7180;BME280;3631;42.152;24.756;2023-04-28T02:26:53;147697.88;;;10.38;58.10
7180;BME280;3631;42.152;24.756;2023-04-28T02:29:58;147680.25;;;10.31;57.98
7180;BME280;3631;42.152;24.756;2023-04-28T02:33:03;147692.84;;;10.36;56.83
7180;BME280;3631;42.152;24.756;2023-04-28T02:36:02;147695.34;;;10.37;56.55
7180;BME280;3631;42.152;24.756;2023-04-28T02:39:00;147700.34;;;10.39;56.78
7180;BME280;3631;42.152;24.756;2023-04-28T02:42:02;147691.59;;;10.35;56.58
7180;BME280;3631;42.152;24.756;2023-04-28T02:45:05;147677.72;;;10.30;56.32
7180;BME280;3631;42.152;24.756;2023-04-28T02:48:02;147702.88;;;10.40;55.56
7180;BME280;3631;42.152;24.756;2023-04-28T02:51:04;147689.06;;;10.34;56.22
7180;BME280;3631;42.152;24.756;2023-04-28T02:56:42;147662.66;;;10.24;55.59
7180;BME280;3631;42.152;24.756;2023-04-28T02:59:30;147667.69;;;10.26;55.24
7180;BME280;3631;42.152;24.756;2023-04-28T03:02:11;147673.94;;;10.28;55.31
7180;BME280;3631;42.152;24.756;2023-04-28T03:05:06;147684.03;;;10.32;55.07
7180;BME280;3631;42.152;24.756;2023-04-28T03:07:56;147680.25;;;10.31;55.13
7180;BME280;3631;42.152;24.756;2023-04-28T03:10:35;147676.47;;;10.29;54.70
7180;BME280;3631;42.152;24.756;2023-04-28T03:13:35;147667.69;;;10.26;54.55
7180;BME280;3631;42.152;24.756;2023-04-28T03:16:19;147672.69;;;10.28;54.39
7180;BME280;3631;42.152;24.756;2023-04-28T03:18:53;147682.75;;;10.32;54.06
7180;BME280;3631;42.152;24.756;2023-04-28T03:21:34;147682.75;;;10.32;54.06
7180;BME280;3631;42.152;24.756;2023-04-28T03:24:08;147695.34;;;10.37;53.96
7180;BME280;3631;42.152;24.756;2023-04-28T03:26:40;147666.44;;;10.25;53.99
7180;BME280;3631;42.152;24.756;2023-04-28T03:29:15;147665.19;;;10.25;54.21
7180;BME280;3631;42.152;24.756;2023-04-28T03:31:50;147655.09;;;10.21;53.61
7180;BME280;3631;42.152;24.756;2023-04-28T03:34:29;147652.59;;;10.19;54.45
7180;BME280;3631;42.152;24.756;2023-04-28T03:37:10;147652.59;;;10.19;54.08
7180;BME280;3631;42.152;24.756;2023-04-28T03:39:40;147656.38;;;10.21;54.30
7180;BME280;3631;42.152;24.756;2023-04-28T03:42:26;147637.47;;;10.13;54.29
7180;BME280;3631;42.152;24.756;2023-04-28T03:45:03;147655.09;;;10.21;54.07
7180;BME280;3631;42.152;24.756;2023-04-28T03:47:52;147656.38;;;10.21;54.42
7180;BME280;3631;42.152;24.756;2023-04-28T03:50:27;147666.44;;;10.25;54.20
7180;BME280;3631;42.152;24.756;2023-04-28T03:53:15;147657.63;;;10.22;53.85
7180;BME280;3631;42.152;24.756;2023-04-28T03:59:01;147725.53;;;10.49;53.28
7180;BME280;3631;42.152;24.756;2023-04-28T04:01:35;147761.97;;;10.64;53.20
7180;BME280;3631;42.152;24.756;2023-04-28T04:04:31;147930.50;;;11.32;50.97
7180;BME280;3631;42.152;24.756;2023-04-28T04:07:22;148284.31;;;12.74;47.55
7180;BME280;3631;42.152;24.756;2023-04-28T04:10:08;148633.41;;;14.14;43.77
7180;BME280;3631;42.152;24.756;2023-04-28T04:12:52;148981.69;;;15.54;40.83
7180;BME280;3631;42.152;24.756;2023-04-28T04:15:24;149315.13;;;16.88;38.88
7180;BME280;3631;42.152;24.756;2023-04-28T04:17:59;149605.88;;;18.05;35.83
7180;BME280;3631;42.152;24.756;2023-04-28T04:20:56;149893.06;;;19.20;33.75
7180;BME280;3631;42.152;24.756;2023-04-28T04:23:50;150095.66;;;20.01;32.11
7180;BME280;3631;42.152;24.756;2023-04-28T04:26:38;150160.25;;;20.27;31.55
7180;BME280;3631;42.152;24.756;2023-04-28T04:29:31;150214.75;;;20.49;31.13
7180;BME280;3631;42.152;24.756;2023-04-28T04:32:25;150262.88;;;20.68;31.09
7180;BME280;3631;42.152;24.756;2023-04-28T04:35:10;150450.50;;;21.43;29.94
7180;BME280;3631;42.152;24.756;2023-04-28T04:38:13;150701.59;;;22.43;28.80
7180;BME280;3631;42.152;24.756;2023-04-28T04:41:06;150725.69;;;22.53;28.09
7180;BME280;3631;42.152;24.756;2023-04-28T04:43:56;150798.00;;;22.82;27.91
7180;BME280;3631;42.152;24.756;2023-04-28T04:46:46;150864.00;;;23.08;27.38
7180;BME280;3631;42.152;24.756;2023-04-28T04:49:52;150932.53;;;23.36;27.03
7180;BME280;3631;42.152;24.756;2023-04-28T04:52:44;151167.47;;;24.30;26.11
7180;BME280;3631;42.152;24.756;2023-04-28T04:55:34;151275.41;;;24.73;25.55
7180;BME280;3631;42.152;24.756;2023-04-28T04:58:05;151260.19;;;24.67;25.37
7180;BME280;3631;42.152;24.756;2023-04-28T05:00:39;151242.44;;;24.59;25.52
7180;BME280;3631;42.152;24.756;2023-04-28T05:03:21;151346.63;;;25.01;24.77
7180;BME280;3631;42.152;24.756;2023-04-28T05:05:59;151224.63;;;24.52;25.24
7180;BME280;3631;42.152;24.756;2023-04-28T05:08:31;151168.75;;;24.30;25.47
7180;BME280;3631;42.152;24.756;2023-04-28T05:11:06;151168.75;;;24.30;25.65
7180;BME280;3631;42.152;24.756;2023-04-28T05:13:54;151119.19;;;24.10;25.90
7180;BME280;3631;42.152;24.756;2023-04-28T05:16:37;151304.63;;;24.84;25.17
7180;BME280;3631;42.152;24.756;2023-04-28T05:19:34;151446.97;;;25.41;24.45
7180;BME280;3631;42.152;24.756;2023-04-28T05:22:21;151497.91;;;25.61;24.45
7180;BME280;3631;42.152;24.756;2023-04-28T05:25:00;151318.63;;;24.90;25.17
7180;BME280;3631;42.152;24.756;2023-04-28T05:27:34;151499.19;;;25.62;24.61
7180;BME280;3631;42.152;24.756;2023-04-28T05:30:10;151626.28;;;26.13;23.74
7180;BME280;3631;42.152;24.756;2023-04-28T05:32:58;151725.53;;;26.52;23.18
7180;BME280;3631;42.152;24.756;2023-04-28T05:35:51;151763.66;;;26.67;23.27
7180;BME280;3631;42.152;24.756;2023-04-28T05:38:34;151781.47;;;26.74;22.83
7180;BME280;3631;42.152;24.756;2023-04-28T05:41:04;151588.13;;;25.97;23.67
7180;BME280;3631;42.152;24.756;2023-04-28T05:43:51;151595.75;;;26.00;23.73
7180;BME280;3631;42.152;24.756;2023-04-28T05:46:47;151435.56;;;25.37;24.05
7180;BME280;3631;42.152;24.756;2023-04-28T05:49:42;151333.91;;;24.96;24.52
7180;BME280;3631;42.152;24.756;2023-04-28T05:52:32;151422.84;;;25.31;24.25
7180;BME280;3631;42.152;24.756;2023-04-28T05:55:15;151477.50;;;25.53;24.05
7180;BME280;3631;42.152;24.756;2023-04-28T05:58:00;151647.88;;;26.21;23.52
7180;BME280;3631;42.152;24.756;2023-04-28T06:00:45;151599.56;;;26.02;23.50
7180;BME280;3631;42.152;24.756;2023-04-28T06:03:27;151720.44;;;26.50;23.30
7180;BME280;3631;42.152;24.756;2023-04-28T06:06:30;151561.41;;;25.87;23.42
7180;BME280;3631;42.152;24.756;2023-04-28T06:09:21;151530.91;;;25.75;23.70
7180;BME280;3631;42.152;24.756;2023-04-28T06:12:18;151473.66;;;25.52;23.61
7180;BME280;3631;42.152;24.756;2023-04-28T06:15:03;151639.00;;;26.18;23.89
7180;BME280;3631;42.152;24.756;2023-04-28T06:18:18;151736.94;;;26.57;22.88
7180;BME280;3631;42.152;24.756;2023-04-28T06:21:05;151588.13;;;25.97;23.49
7180;BME280;3631;42.152;24.756;2023-04-28T06:23:34;151628.81;;;26.14;23.71
7180;BME280;3631;42.152;24.756;2023-04-28T06:26:11;151402.53;;;25.23;24.43
7180;BME280;3631;42.152;24.756;2023-04-28T06:29:00;151364.41;;;25.08;24.56
7180;BME280;3631;42.152;24.756;2023-04-28T06:31:35;151482.59;;;25.55;24.13
7180;BME280;3631;42.152;24.756;2023-04-28T06:34:29;151386.03;;;25.17;24.29
7180;BME280;3631;42.152;24.756;2023-04-28T06:37:04;151267.81;;;24.70;24.86
7180;BME280;3631;42.152;24.756;2023-04-28T06:39:45;151298.31;;;24.82;24.93
7180;BME280;3631;42.152;24.756;2023-04-28T06:42:20;151228.44;;;24.54;25.19
7180;BME280;3631;42.152;24.756;2023-04-28T06:45:01;151181.47;;;24.35;25.20
7180;BME280;3631;42.152;24.756;2023-04-28T06:47:43;151345.34;;;25.01;24.88
7180;BME280;3631;42.152;24.756;2023-04-28T06:50:20;151427.94;;;25.33;24.46
7180;BME280;3631;42.152;24.756;2023-04-28T06:53:06;151480.03;;;25.54;24.16
7180;BME280;3631;42.152;24.756;2023-04-28T06:55:45;151402.53;;;25.23;24.50
7180;BME280;3631;42.152;24.756;2023-04-28T06:58:31;151256.38;;;24.65;24.71
7180;BME280;3631;42.152;24.756;2023-04-28T07:01:23;151250.00;;;24.63;24.90
7180;BME280;3631;42.152;24.756;2023-04-28T07:04:26;151147.13;;;24.21;24.95
7180;BME280;3631;42.152;24.756;2023-04-28T07:07:15;151219.53;;;24.50;24.99
7180;BME280;3631;42.152;24.756;2023-04-28T07:10:03;151523.31;;;25.72;24.09
7180;BME280;3631;42.152;24.756;2023-04-28T07:13:03;151673.34;;;26.31;23.13
7180;BME280;3631;42.152;24.756;2023-04-28T07:16:00;151790.34;;;26.78;22.50
7180;BME280;3631;42.152;24.756;2023-04-28T07:18:43;151736.94;;;26.57;23.13
7180;BME280;3631;42.152;24.756;2023-04-28T07:21:38;151804.38;;;26.84;22.79
7180;BME280;3631;42.152;24.756;2023-04-28T07:24:48;152018.19;;;27.69;21.56
7180;BME280;3631;42.152;24.756;2023-04-28T07:27:47;152074.19;;;27.91;21.43
7180;BME280;3631;42.152;24.756;2023-04-28T07:30:47;152071.63;;;27.90;21.87
7180;BME280;3631;42.152;24.756;2023-04-28T07:33:44;152303.44;;;28.82;21.25
7180;BME280;3631;42.152;24.756;2023-04-28T07:36:40;152410.41;;;29.25;20.92
7180;BME280;3631;42.152;24.756;2023-04-28T07:40:09;152479.28;;;29.52;20.37
7180;BME280;3631;42.152;24.756;2023-04-28T07:43:05;152615.66;;;30.07;19.96
7180;BME280;3631;42.152;24.756;2023-04-28T07:46:03;152611.81;;;30.05;20.14
7180;BME280;3631;42.152;24.756;2023-04-28T07:48:52;152484.38;;;29.54;20.03
7180;BME280;3631;42.152;24.756;2023-04-28T07:51:56;152544.28;;;29.78;19.97
7180;BME280;3631;42.152;24.756;2023-04-28T07:54:47;152604.22;;;30.02;19.74
7180;BME280;3631;42.152;24.756;2023-04-28T07:58:07;152429.56;;;29.33;20.00
7180;BME280;3631;42.152;24.756;2023-04-28T08:01:03;152232.09;;;28.54;20.53
7180;BME280;3631;42.152;24.756;2023-04-28T08:03:51;152140.44;;;28.17;21.23
7180;BME280;3631;42.152;24.756;2023-04-28T08:06:30;152064.03;;;27.87;21.48
7180;BME280;3631;42.152;24.756;2023-04-28T08:09:07;152132.72;;;28.14;21.26
7180;BME280;3631;42.152;24.756;2023-04-28T08:11:49;152163.34;;;28.27;21.50
7180;BME280;3631;42.152;24.756;2023-04-28T08:14:34;152128.91;;;28.13;21.44
7180;BME280;3631;42.152;24.756;2023-04-28T08:17:35;152094.53;;;27.99;21.23
7180;BME280;3631;42.152;24.756;2023-04-28T08:20:43;152002.94;;;27.63;21.41
7180;BME280;3631;42.152;24.756;2023-04-28T08:23:27;152123.81;;;28.11;21.14
7180;BME280;3631;42.152;24.756;2023-04-28T08:26:11;152199.00;;;28.41;21.27
7180;BME280;3631;42.152;24.756;2023-04-28T08:29:08;152345.50;;;28.99;20.86
7180;BME280;3631;42.152;24.756;2023-04-28T08:32:20;152262.66;;;28.66;21.78
7180;BME280;3631;42.152;24.756;2023-04-28T08:35:19;152349.31;;;29.01;21.03
7180;BME280;3631;42.152;24.756;2023-04-28T08:38:01;152328.91;;;28.93;20.90
7180;BME280;3631;42.152;24.756;2023-04-28T08:40:57;151931.59;;;27.34;22.29
7180;BME280;3631;42.152;24.756;2023-04-28T08:47:19;151658.06;;;26.25;23.50
7180;BME280;3631;42.152;24.756;2023-04-28T08:50:20;151639.00;;;26.18;24.04
7180;BME280;3631;42.152;24.756;2023-04-28T08:53:21;151563.97;;;25.88;24.51
7180;BME280;3631;42.152;24.756;2023-04-28T08:56:23;151318.63;;;24.90;24.96
7180;BME280;3631;42.152;24.756;2023-04-28T08:59:15;151250.00;;;24.63;26.48
7180;BME280;3631;42.152;24.756;2023-04-28T09:02:08;151209.41;;;24.46;26.70
7180;BME280;3631;42.152;24.756;2023-04-28T09:08:38;150562.03;;;21.88;29.85
7180;BME280;3631;42.152;24.756;2023-04-28T09:14:59;150739.59;;;22.59;29.30
7180;BME280;3631;42.152;24.756;2023-04-28T09:18:09;150938.84;;;23.38;28.97
7180;BME280;3631;42.152;24.756;2023-04-28T09:21:14;150931.28;;;23.35;28.81
7180;BME280;3631;42.152;24.756;2023-04-28T09:24:36;150988.44;;;23.58;28.69
7180;BME280;3631;42.152;24.756;2023-04-28T09:27:34;151133.13;;;24.16;28.05
7180;BME280;3631;42.152;24.756;2023-04-28T09:30:44;151128.09;;;24.14;27.60
7180;BME280;3631;42.152;24.756;2023-04-28T09:34:06;150838.63;;;22.98;28.31
7180;BME280;3631;42.152;24.756;2023-04-28T09:40:34;150621.69;;;22.12;29.86
7180;BME280;3631;42.152;24.756;2023-04-28T09:43:42;150394.72;;;21.21;31.03
7180;BME280;3631;42.152;24.756;2023-04-28T09:46:49;150330.03;;;20.95;31.07
7180;BME280;3631;42.152;24.756;2023-04-28T09:50:04;150285.66;;;20.77;30.69
7180;BME280;3631;42.152;24.756;2023-04-28T09:52:57;150115.91;;;20.09;30.97
7180;BME280;3631;42.152;24.756;2023-04-28T09:55:51;150143.75;;;20.20;31.38
7180;BME280;3631;42.152;24.756;2023-04-28T09:58:26;150298.38;;;20.82;30.79
7180;BME280;3631;42.152;24.756;2023-04-28T10:01:05;150643.25;;;22.20;29.00
7180;BME280;3631;42.152;24.756;2023-04-28T10:03:50;150864.00;;;23.08;28.38
7180;BME280;3631;42.152;24.756;2023-04-28T10:06:33;151124.25;;;24.12;27.03
7180;BME280;3631;42.152;24.756;2023-04-28T10:09:04;151074.75;;;23.93;27.32
7180;BME280;3631;42.152;24.756;2023-04-28T10:11:43;151048.06;;;23.82;27.44
7180;BME280;3631;42.152;24.756;2023-04-28T10:14:18;150980.81;;;23.55;27.79
7180;BME280;3631;42.152;24.756;2023-04-28T10:17:06;151003.66;;;23.64;27.43
7180;BME280;3631;42.152;24.756;2023-04-28T10:20:00;150940.13;;;23.39;27.35
7180;BME280;3631;42.152;24.756;2023-04-28T10:23:04;150716.78;;;22.50;27.84
7180;BME280;3631;42.152;24.756;2023-04-28T10:25:46;150707.88;;;22.46;28.25
7180;BME280;3631;42.152;24.756;2023-04-28T10:28:36;150591.25;;;21.99;28.10
7180;BME280;3631;42.152;24.756;2023-04-28T10:31:27;150539.19;;;21.79;28.90
7180;BME280;3631;42.152;24.756;2023-04-28T10:34:32;150563.31;;;21.88;28.88
7180;BME280;3631;42.152;24.756;2023-04-28T10:37:31;150450.50;;;21.43;28.72
7180;BME280;3631;42.152;24.756;2023-04-28T10:40:31;150384.53;;;21.17;29.47
7180;BME280;3631;42.152;24.756;2023-04-28T10:47:04;150245.16;;;20.61;31.00
7180;BME280;3631;42.152;24.756;2023-04-28T10:50:07;150251.50;;;20.63;31.21
7180;BME280;3631;42.152;24.756;2023-04-28T10:53:07;150316.09;;;20.89;30.94
7180;BME280;3631;42.152;24.756;2023-04-28T10:56:10;150318.63;;;20.90;30.56
7180;BME280;3631;42.152;24.756;2023-04-28T10:59:36;150292.03;;;20.80;30.45
7180;BME280;3631;42.152;24.756;2023-04-28T11:03:15;150118.44;;;20.10;31.03
7180;BME280;3631;42.152;24.756;2023-04-28T11:09:56;150032.34;;;19.76;31.64
7180;BME280;3631;42.152;24.756;2023-04-28T11:16:21;150022.25;;;19.72;31.79
7180;BME280;3631;42.152;24.756;2023-04-28T11:23:00;150055.16;;;19.85;32.24
7180;BME280;3631;42.152;24.756;2023-04-28T11:25:58;150039.94;;;19.79;32.17
7180;BME280;3631;42.152;24.756;2023-04-28T11:28:59;150032.34;;;19.76;32.10
7180;BME280;3631;42.152;24.756;2023-04-28T11:32:08;150004.47;;;19.65;31.76
7180;BME280;3631;42.152;24.756;2023-04-28T11:35:07;150015.91;;;19.69;32.59
7180;BME280;3631;42.152;24.756;2023-04-28T11:38:12;150015.91;;;19.69;32.60
7180;BME280;3631;42.152;24.756;2023-04-28T11:41:09;149996.94;;;19.62;33.17
7180;BME280;3631;42.152;24.756;2023-04-28T11:43:51;150017.16;;;19.70;33.02
7180;BME280;3631;42.152;24.756;2023-04-28T11:47:01;150062.72;;;19.88;32.67
7180;BME280;3631;42.152;24.756;2023-04-28T11:49:50;150096.94;;;20.02;32.61
7180;BME280;3631;42.152;24.756;2023-04-28T11:52:38;150093.13;;;20.00;32.39
7180;BME280;3631;42.152;24.756;2023-04-28T11:55:33;150057.69;;;19.86;32.14
7180;BME280;3631;42.152;24.756;2023-04-28T11:58:28;150080.47;;;19.95;32.49
7180;BME280;3631;42.152;24.756;2023-04-28T12:01:18;150083.03;;;19.96;32.02
7180;BME280;3631;42.152;24.756;2023-04-28T12:04:11;150037.41;;;19.78;32.47
7180;BME280;3631;42.152;24.756;2023-04-28T12:07:08;150026.03;;;19.73;32.50
7180;BME280;3631;42.152;24.756;2023-04-28T12:09:46;149982.97;;;19.56;32.84
7180;BME280;3631;42.152;24.756;2023-04-28T12:12:32;149984.25;;;19.56;32.90
7180;BME280;3631;42.152;24.756;2023-04-28T12:15:14;150003.22;;;19.64;32.92
7180;BME280;3631;42.152;24.756;2023-04-28T12:17:55;150026.03;;;19.73;32.40
7180;BME280;3631;42.152;24.756;2023-04-28T12:20:43;149991.84;;;19.60;33.02
7180;BME280;3631;42.152;24.756;2023-04-28T12:23:30;149938.66;;;19.38;32.87
7180;BME280;3631;42.152;24.756;2023-04-28T12:26:11;149905.72;;;19.25;33.10
7180;BME280;3631;42.152;24.756;2023-04-28T12:28:57;149865.22;;;19.09;33.37
7180;BME280;3631;42.152;24.756;2023-04-28T12:31:53;149872.81;;;19.12;33.82
7180;BME280;3631;42.152;24.756;2023-04-28T12:34:39;149856.38;;;19.05;33.48
7180;BME280;3631;42.152;24.756;2023-04-28T12:37:27;149822.22;;;18.92;34.13
7180;BME280;3631;42.152;24.756;2023-04-28T12:40:00;149753.88;;;18.64;34.02
7180;BME280;3631;42.152;24.756;2023-04-28T12:42:52;149760.22;;;18.67;34.58
7180;BME280;3631;42.152;24.756;2023-04-28T12:46:05;149760.22;;;18.67;34.44
7180;BME280;3631;42.152;24.756;2023-04-28T12:49:03;149733.59;;;18.56;34.82
7180;BME280;3631;42.152;24.756;2023-04-28T12:51:57;149704.50;;;18.44;34.93
7180;BME280;3631;42.152;24.756;2023-04-28T12:54:49;149684.28;;;18.36;35.27
7180;BME280;3631;42.152;24.756;2023-04-28T12:57:32;149677.94;;;18.34;35.33
7180;BME280;3631;42.152;24.756;2023-04-28T13:00:24;149690.63;;;18.39;34.97
7180;BME280;3631;42.152;24.756;2023-04-28T13:03:16;149637.47;;;18.18;34.49
7180;BME280;3631;42.152;24.756;2023-04-28T13:06:12;149636.25;;;18.17;35.31
7180;BME280;3631;42.152;24.756;2023-04-28T13:09:14;149595.75;;;18.01;35.19
7180;BME280;3631;42.152;24.756;2023-04-28T13:12:03;149604.63;;;18.04;34.59
7180;BME280;3631;42.152;24.756;2023-04-28T13:15:06;149629.91;;;18.14;35.46
7180;BME280;3631;42.152;24.756;2023-04-28T13:18:18;149636.25;;;18.17;35.60
7180;BME280;3631;42.152;24.756;2023-04-28T13:21:13;149629.91;;;18.14;35.26
7180;BME280;3631;42.152;24.756;2023-04-28T13:24:18;149610.91;;;18.07;35.55
7180;BME280;3631;42.152;24.756;2023-04-28T13:27:18;149614.72;;;18.08;35.33
7180;BME280;3631;42.152;24.756;2023-04-28T13:30:28;149607.16;;;18.05;35.52
7180;BME280;3631;42.152;24.756;2023-04-28T13:33:38;149609.66;;;18.06;35.99
7180;BME280;3631;42.152;24.756;2023-04-28T13:36:50;149613.44;;;18.08;35.76
7180;BME280;3631;42.152;24.756;2023-04-28T13:39:54;149624.84;;;18.12;35.20
7180;BME280;3631;42.152;24.756;2023-04-28T13:42:43;149604.63;;;18.04;35.74
7180;BME280;3631;42.152;24.756;2023-04-28T13:45:34;149569.22;;;17.90;36.18
7180;BME280;3631;42.152;24.756;2023-04-28T13:48:35;149566.69;;;17.89;36.36
7180;BME280;3631;42.152;24.756;2023-04-28T13:51:46;149581.81;;;17.95;36.56
7180;BME280;3631;42.152;24.756;2023-04-28T13:54:46;149597.03;;;18.01;36.45
7180;BME280;3631;42.152;24.756;2023-04-28T13:57:45;149598.28;;;18.02;35.75
7180;BME280;3631;42.152;24.756;2023-04-28T14:00:27;149607.16;;;18.05;35.80
7180;BME280;3631;42.152;24.756;2023-04-28T14:03:09;149579.34;;;17.94;35.77
7180;BME280;3631;42.152;24.756;2023-04-28T14:06:00;149588.16;;;17.98;35.74
7180;BME280;3631;42.152;24.756;2023-04-28T14:09:03;149586.88;;;17.97;35.93
7180;BME280;3631;42.152;24.756;2023-04-28T14:12:04;149602.09;;;18.03;36.31
7180;BME280;3631;42.152;24.756;2023-04-28T14:15:10;149607.16;;;18.05;36.16
7180;BME280;3631;42.152;24.756;2023-04-28T14:18:18;149604.63;;;18.04;36.11
7180;BME280;3631;42.152;24.756;2023-04-28T14:21:22;149579.34;;;17.94;36.23
7180;BME280;3631;42.152;24.756;2023-04-28T14:24:39;149560.34;;;17.87;36.19
7180;BME280;3631;42.152;24.756;2023-04-28T14:27:44;149561.59;;;17.87;36.53
7180;BME280;3631;42.152;24.756;2023-04-28T14:30:38;149555.28;;;17.85;36.47
7180;BME280;3631;42.152;24.756;2023-04-28T14:33:35;149555.28;;;17.85;36.49
7180;BME280;3631;42.152;24.756;2023-04-28T14:36:35;149552.75;;;17.84;36.78
7180;BME280;3631;42.152;24.756;2023-04-28T14:39:34;149569.22;;;17.90;36.38
7180;BME280;3631;42.152;24.756;2023-04-28T14:42:33;149579.34;;;17.94;36.49
7180;BME280;3631;42.152;24.756;2023-04-28T14:46:00;149585.63;;;17.97;36.46
7180;BME280;3631;42.152;24.756;2023-04-28T14:52:38;149566.69;;;17.89;36.72
7180;BME280;3631;42.152;24.756;2023-04-28T14:55:41;149550.25;;;17.83;36.74
7180;BME280;3631;42.152;24.756;2023-04-28T14:58:50;149581.81;;;17.95;35.84
7180;BME280;3631;42.152;24.756;2023-04-28T15:01:37;149595.75;;;18.01;36.01
7180;BME280;3631;42.152;24.756;2023-04-28T15:04:20;149593.22;;;18.00;35.83
7180;BME280;3631;42.152;24.756;2023-04-28T15:07:23;149586.88;;;17.97;36.11
7180;BME280;3631;42.152;24.756;2023-04-28T15:10:37;149581.81;;;17.95;36.54
7180;BME280;3631;42.152;24.756;2023-04-28T15:14:01;149573.00;;;17.92;36.25
7180;BME280;3631;42.152;24.756;2023-04-28T15:16:55;149535.06;;;17.76;36.36
7180;BME280;3631;42.152;24.756;2023-04-28T15:19:54;149526.19;;;17.73;36.28
7180;BME280;3631;42.152;24.756;2023-04-28T15:22:55;149521.19;;;17.71;36.50
7180;BME280;3631;42.152;24.756;2023-04-28T15:26:02;149521.19;;;17.71;36.48
7180;BME280;3631;42.152;24.756;2023-04-28T15:29:03;149522.44;;;17.71;37.11
7180;BME280;3631;42.152;24.756;2023-04-28T15:32:06;149528.72;;;17.74;37.29
7180;BME280;3631;42.152;24.756;2023-04-28T15:35:01;149522.44;;;17.71;37.17
7180;BME280;3631;42.152;24.756;2023-04-28T15:38:01;149545.19;;;17.81;37.30
7180;BME280;3631;42.152;24.756;2023-04-28T15:40:58;149541.41;;;17.79;37.50
7180;BME280;3631;42.152;24.756;2023-04-28T15:44:18;149536.34;;;17.77;37.41
7180;BME280;3631;42.152;24.756;2023-04-28T15:47:12;149522.44;;;17.71;37.60
7180;BME280;3631;42.152;24.756;2023-04-28T15:50:14;149502.19;;;17.63;37.63
7180;BME280;3631;42.152;24.756;2023-04-28T15:53:29;149492.06;;;17.59;37.80
7180;BME280;3631;42.152;24.756;2023-04-28T15:56:26;149480.66;;;17.55;37.89
7180;BME280;3631;42.152;24.756;2023-04-28T15:59:30;149451.59;;;17.43;38.22
7180;BME280;3631;42.152;24.756;2023-04-28T16:02:31;149437.72;;;17.37;38.36
7180;BME280;3631;42.152;24.756;2023-04-28T16:05:31;149421.25;;;17.31;38.54
7180;BME280;3631;42.152;24.756;2023-04-28T16:08:30;149397.25;;;17.21;38.30
7180;BME280;3631;42.152;24.756;2023-04-28T16:11:24;149398.50;;;17.22;38.33
7180;BME280;3631;42.152;24.756;2023-04-28T16:14:28;149392.19;;;17.19;38.90
7180;BME280;3631;42.152;24.756;2023-04-28T16:17:31;149384.59;;;17.16;38.81
7180;BME280;3631;42.152;24.756;2023-04-28T16:20:31;149399.78;;;17.22;38.89
7180;BME280;3631;42.152;24.756;2023-04-28T16:23:40;149399.78;;;17.22;38.36